Alhambra, California
Current Conditions -  °F | °C
As of 7:47 PM on Sunday 21 Dec 2014 (Local Time) from KEMT Reporting Station
Clear Clear  
Wind Chill: 57°   Ceiling: Unl
Heat Index: 57°   Visibility: 10mi
Dew Point: 50°   Wind: 5mph
Humidity: 77%   Direction: 10°N
Pressure: 30.08"   Gusts: NA
Location:  34.09°N, 118.12°W
Report Text: KEMT 220347Z 01004KT 10SM CLR 14/10 A3008
Loading
Personal Weather Stations






























Interactive Weather Map New forecast layout! Learn more

10-Day Weather Forecast

Advertisements
Track Severe Weather on mobile